Star, Texas
Current Conditions -  °F | °C
As of 9:55 PM on Friday 24 Oct 2014 (Local Time) from KMNZ Reporting Station
Clear Clear  
Wind Chill: 69°   Ceiling: Unl
Heat Index: 69°   Visibility: 10mi
Dew Point: 59°   Wind: 8mph
Humidity: 71%   Direction: 180°S
Pressure: 30.14"   Gusts: NA
Location:  31.47°N, 98.32°W
Report Text: KMNZ 250255Z AUTO 18007KT 10SM CLR 20/15 A3014 RMK AO2 T02040150
Loading
Personal Weather Stations






























Interactive Weather Map New forecast layout! Learn more

10-Day Weather Forecast

Advertisements
Track Severe Weather on mobile